createdAt,value
2018-11-11T00:00:19.521Z,38.20
2018-11-11T00:02:51.053Z,37.60
2018-11-11T00:05:22.243Z,36.60
2018-11-11T00:07:53.161Z,38.97
2018-11-11T00:10:23.137Z,37.13
2018-11-11T00:12:55.653Z,39.37
2018-11-11T00:15:25.424Z,39.40
2018-11-11T00:17:55.589Z,39.57
2018-11-11T00:20:26.286Z,39.50
2018-11-11T00:22:56.193Z,37.87
2018-11-11T00:25:25.924Z,38.40
2018-11-11T00:27:55.635Z,39.53
2018-11-11T00:30:25.309Z,37.50
2018-11-11T00:32:55.025Z,37.20
2018-11-11T00:35:24.692Z,37.00
2018-11-11T00:37:54.401Z,35.40
2018-11-11T00:40:24.102Z,35.90
2018-11-11T00:42:53.875Z,35.40
2018-11-11T00:45:23.606Z,34.67
2018-11-11T00:47:53.261Z,36.53
2018-11-11T00:50:22.901Z,35.47
2018-11-11T00:52:52.621Z,35.57
2018-11-11T00:55:22.290Z,34.70
2018-11-11T00:57:51.917Z,35.37
2018-11-11T01:00:21.619Z,34.73
2018-11-11T01:02:51.339Z,35.37
2018-11-11T01:05:21.072Z,35.37
2018-11-11T01:07:50.847Z,34.97
2018-11-11T01:10:20.535Z,36.57
2018-11-11T01:12:50.221Z,36.50
2018-11-11T01:15:19.943Z,37.33
2018-11-11T01:17:49.655Z,35.50
2018-11-11T01:20:19.347Z,37.70
2018-11-11T01:22:49.018Z,36.80
2018-11-11T01:25:18.735Z,35.57
2018-11-11T01:27:48.381Z,36.30
2018-11-11T01:30:18.113Z,36.10
2018-11-11T01:32:47.751Z,35.63
2018-11-11T01:35:17.879Z,34.43
2018-11-11T01:37:47.540Z,35.00
2018-11-11T01:40:17.202Z,34.33
2018-11-11T01:42:46.886Z,35.60
2018-11-11T01:45:18.102Z,35.70
2018-11-11T01:47:48.561Z,35.97
2018-11-11T01:50:18.224Z,35.30
2018-11-11T01:52:48.017Z,34.57
2018-11-11T01:55:17.704Z,35.77
2018-11-11T01:57:47.411Z,35.23
2018-11-11T02:00:18.950Z,36.40
2018-11-11T02:02:49.140Z,35.93
2018-11-11T02:05:18.903Z,34.57
2018-11-11T02:07:49.234Z,35.67
2018-11-11T02:10:18.943Z,35.87
2018-11-11T02:12:48.649Z,36.73
2018-11-11T02:15:18.772Z,37.67
2018-11-11T02:17:48.497Z,35.43
2018-11-11T02:20:19.367Z,32.63
2018-11-11T02:22:50.395Z,36.03
2018-11-11T02:25:20.059Z,35.27
2018-11-11T02:27:49.768Z,34.93
2018-11-11T02:30:21.599Z,35.67
2018-11-11T02:32:51.436Z,36.30
2018-11-11T02:35:21.161Z,34.30
2018-11-11T02:37:50.857Z,35.60
2018-11-11T02:40:21.331Z,34.90
2018-11-11T02:42:51.158Z,34.93
2018-11-11T02:45:21.260Z,35.20
2018-11-11T02:47:51.006Z,34.20
2018-11-11T02:50:20.852Z,34.13
2018-11-11T02:52:50.536Z,33.33
2018-11-11T02:55:20.228Z,33.23
2018-11-11T02:57:49.957Z,34.63
2018-11-11T03:00:21.569Z,34.47
2018-11-11T03:02:51.400Z,36.60
2018-11-11T03:05:21.581Z,34.73
2018-11-11T03:07:51.261Z,36.80
2018-11-11T03:10:20.922Z,36.57
2018-11-11T03:12:51.243Z,33.70
2018-11-11T03:15:21.260Z,40.47
2018-11-11T03:17:50.904Z,37.07
2018-11-11T03:20:20.603Z,40.50
2018-11-11T03:22:50.272Z,38.63
2018-11-11T03:25:19.999Z,38.50
2018-11-11T03:27:49.719Z,39.40
2018-11-11T03:30:19.384Z,37.07
2018-11-11T03:32:49.095Z,39.63
2018-11-11T03:35:18.767Z,38.13
2018-11-11T03:37:48.427Z,37.60
2018-11-11T03:40:20.525Z,41.50
2018-11-11T03:42:51.001Z,39.70
2018-11-11T03:45:21.528Z,39.67
2018-11-11T03:47:52.314Z,39.37
2018-11-11T03:50:22.001Z,39.07
2018-11-11T03:52:51.694Z,38.07
2018-11-11T03:55:21.470Z,36.10
2018-11-11T03:57:51.160Z,35.47
2018-11-11T04:00:20.833Z,37.30
2018-11-11T04:02:50.576Z,35.87
2018-11-11T04:05:20.232Z,34.20
2018-11-11T04:07:49.930Z,33.33
2018-11-11T04:10:20.331Z,33.73
2018-11-11T04:12:50.219Z,34.17
2018-11-11T04:15:20.551Z,34.10
2018-11-11T04:17:50.289Z,33.70
2018-11-11T04:20:20.986Z,33.97
2018-11-11T04:22:50.691Z,33.60
2018-11-11T04:25:20.516Z,32.63
2018-11-11T04:27:50.251Z,32.30
2018-11-11T04:30:19.896Z,35.07
2018-11-11T04:32:49.490Z,33.07
2018-11-11T04:35:19.151Z,34.90
2018-11-11T04:37:48.844Z,32.93
2018-11-11T04:40:18.609Z,32.40
2018-11-11T04:42:48.273Z,31.47
2018-11-11T04:45:18.022Z,32.60
2018-11-11T04:47:47.705Z,33.47
2018-11-11T04:50:18.694Z,32.97
2018-11-11T04:52:48.405Z,34.87
2018-11-11T04:55:18.384Z,33.83
2018-11-11T04:57:48.074Z,33.10
2018-11-11T05:00:18.185Z,36.57
2018-11-11T05:02:47.896Z,34.07
2018-11-11T05:05:18.033Z,34.57
2018-11-11T05:07:47.674Z,36.07
2018-11-11T05:10:17.960Z,35.50
2018-11-11T05:12:48.358Z,37.70
2018-11-11T05:15:18.602Z,34.13
2018-11-11T05:17:48.765Z,34.17
2018-11-11T05:20:19.028Z,34.93
2018-11-11T05:22:48.731Z,35.87
2018-11-11T05:25:19.133Z,34.43
2018-11-11T05:27:49.751Z,34.20
2018-11-11T05:30:20.628Z,34.03
2018-11-11T05:32:51.065Z,33.30
2018-11-11T05:35:21.623Z,33.27
2018-11-11T05:37:52.128Z,32.80
2018-11-11T05:40:22.433Z,33.07
2018-11-11T05:42:52.958Z,31.73
2018-11-11T05:45:23.422Z,31.77
2018-11-11T05:47:54.157Z,32.13
2018-11-11T05:50:24.724Z,31.60
2018-11-11T05:52:55.421Z,30.27
2018-11-11T05:55:28.351Z,31.37
2018-11-11T05:57:58.702Z,30.40
2018-11-11T06:00:29.281Z,29.17
2018-11-11T06:03:01.991Z,29.77
2018-11-11T06:05:32.552Z,28.07
2018-11-11T06:08:03.085Z,31.13
2018-11-11T06:10:33.818Z,30.50
2018-11-11T06:13:04.228Z,29.83
2018-11-11T06:15:34.716Z,31.20
2018-11-11T06:18:05.161Z,28.57
2018-11-11T06:20:35.612Z,31.67
2018-11-11T06:23:06.108Z,32.33
2018-11-11T06:25:36.917Z,31.63
2018-11-11T06:28:07.433Z,31.07
2018-11-11T06:30:38.006Z,31.97
2018-11-11T06:33:08.549Z,30.40
2018-11-11T06:35:38.913Z,33.33
2018-11-11T06:38:09.422Z,31.20
2018-11-11T06:40:40.101Z,33.23
2018-11-11T06:43:11.135Z,30.27
2018-11-11T06:45:42.468Z,31.20
2018-11-11T06:48:13.201Z,32.03
2018-11-11T06:50:43.714Z,31.43
2018-11-11T06:53:14.093Z,30.80
2018-11-11T06:55:44.581Z,29.93
2018-11-11T06:58:15.255Z,30.70
2018-11-11T07:00:44.950Z,29.73
2018-11-11T07:03:31.384Z,31.37
2018-11-11T07:06:01.091Z,32.57
2018-11-11T07:08:30.768Z,31.57
2018-11-11T07:11:00.425Z,31.10
2018-11-11T07:13:30.327Z,32.27
2018-11-11T07:16:00.028Z,31.00
2018-11-11T07:18:29.683Z,31.53
2018-11-11T07:20:59.366Z,29.13
2018-11-11T07:23:29.076Z,30.23
2018-11-11T07:25:59.660Z,29.70
2018-11-11T07:28:29.422Z,28.37
2018-11-11T07:30:59.073Z,29.13
2018-11-11T07:33:29.006Z,29.83
2018-11-11T07:35:59.274Z,26.27
2018-11-11T07:38:28.909Z,26.70
2018-11-11T07:40:58.583Z,26.00
2018-11-11T07:43:29.195Z,25.70
2018-11-11T07:45:58.890Z,25.40
2018-11-11T07:48:28.559Z,26.60
2018-11-11T07:50:58.198Z,25.33
2018-11-11T07:53:27.966Z,25.83
2018-11-11T07:55:57.662Z,26.13
2018-11-11T07:58:27.503Z,26.50
2018-11-11T08:00:57.132Z,26.47
2018-11-11T08:03:26.787Z,26.43
2018-11-11T08:05:56.550Z,27.90
2018-11-11T08:08:26.267Z,27.27
2018-11-11T08:11:13.233Z,27.50
2018-11-11T08:13:43.061Z,27.60
2018-11-11T08:16:12.761Z,26.93
2018-11-11T08:18:43.673Z,26.03
2018-11-11T08:21:15.096Z,25.80
2018-11-11T08:23:44.871Z,27.30
2018-11-11T08:26:15.008Z,29.47
2018-11-11T08:28:44.832Z,29.17
2018-11-11T08:31:14.472Z,28.23
2018-11-11T08:33:44.616Z,25.07
2018-11-11T08:36:14.322Z,27.30
2018-11-11T08:38:44.099Z,26.47
2018-11-11T08:41:13.787Z,27.13
2018-11-11T08:43:43.492Z,28.30
2018-11-11T08:46:13.226Z,27.63
2018-11-11T08:48:43.828Z,27.73
2018-11-11T08:51:13.505Z,28.07
2018-11-11T08:53:43.269Z,27.40
2018-11-11T08:56:13.063Z,27.43
2018-11-11T08:58:42.752Z,30.23
2018-11-11T09:01:12.481Z,28.90
2018-11-11T09:03:42.852Z,30.53
2018-11-11T09:06:12.579Z,26.80
2018-11-11T09:08:43.575Z,29.53
2018-11-11T09:11:13.378Z,27.23
2018-11-11T09:13:44.683Z,26.50
2018-11-11T09:16:14.422Z,26.10
2018-11-11T09:18:44.384Z,26.37
2018-11-11T09:21:14.193Z,25.80
2018-11-11T09:23:43.901Z,25.77
2018-11-11T09:26:13.590Z,25.37
2018-11-11T09:28:46.295Z,24.43
2018-11-11T09:31:16.015Z,25.20
2018-11-11T09:33:46.207Z,25.33
2018-11-11T09:36:17.676Z,25.70
2018-11-11T09:38:47.560Z,23.93
2018-11-11T09:41:24.367Z,24.53
2018-11-11T09:43:57.358Z,24.17
2018-11-11T09:46:27.862Z,24.17
2018-11-11T09:48:57.635Z,23.40
2018-11-11T09:51:28.723Z,24.03
2018-11-11T09:53:59.091Z,24.37
2018-11-11T09:56:29.021Z,23.90
2018-11-11T09:58:58.738Z,23.53
2018-11-11T10:01:30.006Z,25.40
2018-11-11T10:04:09.280Z,24.63
2018-11-11T10:07:45.047Z,24.47
2018-11-11T10:10:49.066Z,26.67
2018-11-11T10:13:29.034Z,28.40
2018-11-11T10:16:07.340Z,25.23
2018-11-11T10:18:44.587Z,24.50
2018-11-11T10:22:17.797Z,25.17
2018-11-11T10:26:55.551Z,28.87
2018-11-11T10:29:30.181Z,29.37
2018-11-11T10:32:08.216Z,32.67
2018-11-11T10:34:56.090Z,29.17
2018-11-11T10:37:32.254Z,27.33
2018-11-11T10:40:07.486Z,33.10
2018-11-11T10:42:48.418Z,28.40
2018-11-11T10:45:27.251Z,28.10
2018-11-11T10:48:03.828Z,26.57
2018-11-11T10:50:43.857Z,28.37
2018-11-11T10:53:13.582Z,27.87
2018-11-11T10:55:43.241Z,26.70
2018-11-11T10:58:12.955Z,27.33
2018-11-11T11:00:48.024Z,25.10
2018-11-11T11:03:22.923Z,25.43
2018-11-11T11:05:52.639Z,24.03
2018-11-11T11:08:22.211Z,24.07
2018-11-11T11:10:51.854Z,25.87
2018-11-11T11:13:21.592Z,25.10
2018-11-11T11:15:51.299Z,26.03
2018-11-11T11:18:21.089Z,24.90
2018-11-11T11:20:50.743Z,24.23
2018-11-11T11:23:20.415Z,25.10
2018-11-11T11:25:50.253Z,23.70
2018-11-11T11:28:19.849Z,23.30
2018-11-11T11:30:49.492Z,23.00
2018-11-11T11:33:19.205Z,24.97
2018-11-11T11:35:48.983Z,22.97
2018-11-11T11:38:18.716Z,23.83
2018-11-11T11:40:48.397Z,22.97
2018-11-11T11:43:18.050Z,22.30
2018-11-11T11:45:47.807Z,22.17
2018-11-11T11:48:17.492Z,22.07
2018-11-11T11:50:47.285Z,23.10
2018-11-11T11:53:16.960Z,26.57
2018-11-11T11:55:46.752Z,24.47
2018-11-11T11:58:24.832Z,23.60
2018-11-11T12:00:54.463Z,24.47
2018-11-11T12:03:24.306Z,23.70
2018-11-11T12:05:53.978Z,23.57
2018-11-11T12:08:24.053Z,23.23
2018-11-11T12:10:55.210Z,22.23
2018-11-11T12:13:25.011Z,21.70
2018-11-11T12:15:55.091Z,22.97
2018-11-11T12:18:24.768Z,22.67
2018-11-11T12:20:54.495Z,22.93
2018-11-11T12:23:24.402Z,22.47
2018-11-11T12:25:53.949Z,22.47
2018-11-11T12:28:23.636Z,21.53
2018-11-11T12:30:53.348Z,21.30
2018-11-11T12:33:22.991Z,21.70
2018-11-11T12:35:52.689Z,22.33
2018-11-11T12:38:22.422Z,22.57
2018-11-11T12:40:52.170Z,22.90
2018-11-11T12:43:21.898Z,23.83
2018-11-11T12:45:51.711Z,22.60
2018-11-11T12:48:21.482Z,21.13
2018-11-11T12:50:52.152Z,24.10
2018-11-11T12:53:21.952Z,23.67
2018-11-11T12:55:52.026Z,23.67
2018-11-11T12:58:22.332Z,22.57
2018-11-11T13:00:52.108Z,23.23
2018-11-11T13:03:22.572Z,21.77
2018-11-11T13:05:52.318Z,25.37
2018-11-11T13:08:22.298Z,24.80
2018-11-11T13:10:52.105Z,24.27
2018-11-11T13:13:22.577Z,24.97
2018-11-11T13:15:52.260Z,26.13
2018-11-11T13:18:22.331Z,25.83
2018-11-11T13:20:52.059Z,26.83
2018-11-11T13:23:22.914Z,26.47
2018-11-11T13:25:52.819Z,24.23
2018-11-11T13:28:22.589Z,26.20
2018-11-11T13:30:52.446Z,27.77
2018-11-11T13:33:22.153Z,31.97
2018-11-11T13:35:53.374Z,32.93
2018-11-11T13:38:23.812Z,31.63
2018-11-11T13:40:53.539Z,27.20
2018-11-11T13:43:23.677Z,24.53
2018-11-11T13:45:53.485Z,23.73
2018-11-11T13:48:23.137Z,21.60
2018-11-11T13:50:52.848Z,21.33
2018-11-11T13:53:22.927Z,21.03
2018-11-11T13:55:52.883Z,22.63
2018-11-11T13:58:22.794Z,20.83
2018-11-11T14:00:53.295Z,21.73
2018-11-11T14:03:23.100Z,22.20
2018-11-11T14:05:52.891Z,22.83
2018-11-11T14:08:22.926Z,21.37
2018-11-11T14:10:52.693Z,21.30
2018-11-11T14:13:22.505Z,21.80
2018-11-11T14:15:52.354Z,20.70
2018-11-11T14:18:22.129Z,19.97
2018-11-11T14:20:51.936Z,20.67
2018-11-11T14:23:21.760Z,21.33
2018-11-11T14:25:51.535Z,21.97
2018-11-11T14:28:22.158Z,20.73
2018-11-11T14:30:51.951Z,20.73
2018-11-11T14:33:21.757Z,21.20
2018-11-11T14:35:51.545Z,21.23
2018-11-11T14:38:21.270Z,20.53
2018-11-11T14:40:51.071Z,21.63
2018-11-11T14:43:35.917Z,22.50
2018-11-11T14:46:06.095Z,22.60
2018-11-11T14:48:35.777Z,22.80
2018-11-11T14:51:05.758Z,24.00
2018-11-11T14:53:35.694Z,22.67
2018-11-11T14:56:07.867Z,25.27
2018-11-11T14:58:38.112Z,25.07
2018-11-11T15:01:07.982Z,25.50
2018-11-11T15:03:38.309Z,28.63
2018-11-11T15:06:08.315Z,26.20
2018-11-11T15:08:38.626Z,28.00
2018-11-11T15:11:08.672Z,26.77
2018-11-11T15:13:39.491Z,28.23
2018-11-11T15:16:09.206Z,27.93
2018-11-11T15:18:40.466Z,27.53
2018-11-11T15:21:10.439Z,28.63
2018-11-11T15:23:40.749Z,29.10
2018-11-11T15:26:10.463Z,29.47
2018-11-11T15:28:40.439Z,29.23
2018-11-11T15:31:11.238Z,30.60
2018-11-11T15:33:42.632Z,29.33
2018-11-11T15:36:12.262Z,29.83
2018-11-11T15:38:42.571Z,30.23
2018-11-11T15:41:12.314Z,29.77
2018-11-11T15:43:42.236Z,29.10
2018-11-11T15:46:11.979Z,30.83
2018-11-11T15:48:42.959Z,32.03
2018-11-11T15:51:12.834Z,31.57
2018-11-11T15:53:42.571Z,34.63
2018-11-11T15:56:12.278Z,34.03
2018-11-11T15:58:42.571Z,35.13
2018-11-11T16:01:12.316Z,33.00
2018-11-11T16:03:43.559Z,32.97
2018-11-11T16:06:13.723Z,32.63
2018-11-11T16:08:43.431Z,30.70
2018-11-11T16:11:13.099Z,32.47
2018-11-11T16:13:43.138Z,33.17
2018-11-11T16:16:12.987Z,34.20
2018-11-11T16:18:44.208Z,34.70
2018-11-11T16:21:15.727Z,33.57
2018-11-11T16:23:45.599Z,32.23
2018-11-11T16:26:15.184Z,32.93
2018-11-11T16:28:44.876Z,34.70
2018-11-11T16:31:14.529Z,33.77
2018-11-11T16:33:44.813Z,34.90
2018-11-11T16:36:14.969Z,36.55
2018-11-11T16:38:44.853Z,34.70
2018-11-11T16:41:14.843Z,35.23
2018-11-11T16:43:47.359Z,35.00
2018-11-11T16:46:17.131Z,36.13
2018-11-11T16:48:47.285Z,35.27
2018-11-11T16:51:17.074Z,33.93
2018-11-11T16:53:46.681Z,32.90
2018-11-11T16:56:17.564Z,34.27
2018-11-11T16:58:47.269Z,32.93
2018-11-11T17:01:16.940Z,30.90
2018-11-11T17:03:46.642Z,30.67
2018-11-11T17:06:16.409Z,30.93
2018-11-11T17:08:46.261Z,30.43
2018-11-11T17:11:15.954Z,30.63
2018-11-11T17:13:45.874Z,31.70
2018-11-11T17:16:15.624Z,29.87
2018-11-11T17:18:46.118Z,30.33
2018-11-11T17:21:18.770Z,31.23
2018-11-11T17:23:49.101Z,31.30
2018-11-11T17:26:19.208Z,29.80
2018-11-11T17:28:49.145Z,28.90
2018-11-11T17:31:18.913Z,29.73
2018-11-11T17:33:49.341Z,29.73
2018-11-11T17:36:19.183Z,27.70
2018-11-11T17:38:48.878Z,27.23
2018-11-11T17:41:18.595Z,27.50
2018-11-11T17:43:48.490Z,25.83
2018-11-11T17:46:18.247Z,26.00
2018-11-11T17:48:47.966Z,26.20
2018-11-11T17:51:18.135Z,24.93
2018-11-11T17:53:48.110Z,25.30
2018-11-11T17:56:18.113Z,25.57
2018-11-11T17:58:47.954Z,25.23
2018-11-11T18:01:17.891Z,25.97
2018-11-11T18:03:47.859Z,27.33
2018-11-11T18:06:17.841Z,25.10
2018-11-11T18:08:47.780Z,26.53
2018-11-11T18:11:17.704Z,23.47
2018-11-11T18:13:47.599Z,23.03
2018-11-11T18:16:17.502Z,23.47
2018-11-11T18:18:47.447Z,22.60
2018-11-11T18:21:17.266Z,22.57
2018-11-11T18:23:46.920Z,21.30
2018-11-11T18:26:16.778Z,21.83
2018-11-11T18:28:46.613Z,20.90
2018-11-11T18:31:16.380Z,20.30
2018-11-11T18:33:46.287Z,20.83
2018-11-11T18:36:16.030Z,20.13
2018-11-11T18:38:45.743Z,19.50
2018-11-11T18:41:15.534Z,19.97
2018-11-11T18:43:45.417Z,18.90
2018-11-11T18:46:16.037Z,18.90
2018-11-11T18:48:46.355Z,19.03
2018-11-11T18:51:16.408Z,19.77
2018-11-11T18:53:47.703Z,20.17
2018-11-11T18:56:17.685Z,17.73
2018-11-11T18:58:47.541Z,20.30
2018-11-11T19:01:17.656Z,63.50
2018-11-11T19:03:47.348Z,54.80
2018-11-11T19:06:18.249Z,52.77
2018-11-11T19:08:47.976Z,43.47
2018-11-11T19:11:17.893Z,41.20
2018-11-11T19:13:47.655Z,52.37
2018-11-11T19:16:18.370Z,95.37
2018-11-11T19:18:48.389Z,204.77
2018-11-11T19:21:18.554Z,228.90
2018-11-11T19:23:48.445Z,179.00
2018-11-11T19:26:18.540Z,125.37
2018-11-11T19:29:11.848Z,72.10
2018-11-11T19:31:41.589Z,87.70
2018-11-11T19:34:11.527Z,94.23
2018-11-11T19:36:42.889Z,116.40
2018-11-11T19:39:13.620Z,98.67
2018-11-11T19:41:43.355Z,83.87
2018-11-11T19:44:13.085Z,39.77
2018-11-11T19:46:43.210Z,49.43
2018-11-11T19:49:12.933Z,49.07
2018-11-11T19:51:43.506Z,50.20
2018-11-11T19:54:13.124Z,54.27
2018-11-11T19:56:42.989Z,33.57
2018-11-11T19:59:12.855Z,39.07
2018-11-11T20:01:42.996Z,47.83
2018-11-11T20:04:14.600Z,47.00
2018-11-11T20:06:44.736Z,36.07
2018-11-11T20:09:14.811Z,38.17
2018-11-11T20:11:44.619Z,41.07
2018-11-11T20:14:16.022Z,52.77
2018-11-11T20:16:46.024Z,44.23
2018-11-11T20:19:15.782Z,32.60
2018-11-11T20:21:46.460Z,32.47
2018-11-11T20:24:16.302Z,34.07
2018-11-11T20:26:46.163Z,28.80
2018-11-11T20:29:15.959Z,29.37
2018-11-11T20:31:45.807Z,31.57
2018-11-11T20:34:15.967Z,28.90
2018-11-11T20:36:45.725Z,31.60
2018-11-11T20:39:15.544Z,29.10
2018-11-11T20:41:45.391Z,26.27
2018-11-11T20:44:15.269Z,25.97
2018-11-11T20:46:45.623Z,24.73
2018-11-11T20:49:15.339Z,22.07
2018-11-11T20:51:45.214Z,22.30
2018-11-11T20:54:15.029Z,23.03
2018-11-11T20:56:44.856Z,23.27
2018-11-11T20:59:14.692Z,23.03
2018-11-11T21:01:47.609Z,22.93
2018-11-11T21:04:17.525Z,24.70
2018-11-11T21:06:47.253Z,24.57
2018-11-11T21:09:17.036Z,23.83
2018-11-11T21:11:46.631Z,24.37
2018-11-11T21:14:16.352Z,25.73
2018-11-11T21:16:46.953Z,24.90
2018-11-11T21:19:16.763Z,22.83
2018-11-11T21:21:48.187Z,22.17
2018-11-11T21:24:17.928Z,21.77
2018-11-11T21:26:47.710Z,21.83
2018-11-11T21:29:17.391Z,21.50
2018-11-11T21:31:47.166Z,21.53
2018-11-11T21:34:16.919Z,20.67
2018-11-11T21:36:46.601Z,22.17
2018-11-11T21:39:16.361Z,21.77
2018-11-11T21:41:46.232Z,22.90
2018-11-11T21:44:16.092Z,22.03
2018-11-11T21:46:46.932Z,21.47
2018-11-11T21:49:16.802Z,22.17
2018-11-11T21:51:46.870Z,22.90
2018-11-11T21:54:16.761Z,22.37
2018-11-11T21:56:46.665Z,20.67
2018-11-11T21:59:16.777Z,23.20
2018-11-11T22:01:46.687Z,21.67
2018-11-11T22:04:16.683Z,21.43
2018-11-11T22:06:46.479Z,22.37
2018-11-11T22:09:17.192Z,21.97
2018-11-11T22:11:47.889Z,22.03
2018-11-11T22:14:17.465Z,21.93
2018-11-11T22:16:47.301Z,22.63
2018-11-11T22:19:17.225Z,22.83
2018-11-11T22:21:46.968Z,23.67
2018-11-11T22:24:16.621Z,23.53
2018-11-11T22:26:46.295Z,23.43
2018-11-11T22:29:16.572Z,24.63
2018-11-11T22:31:46.287Z,26.03
2018-11-11T22:34:15.985Z,26.00
2018-11-11T22:36:45.803Z,26.03
2018-11-11T22:39:15.697Z,25.97
2018-11-11T22:41:45.406Z,26.40
2018-11-11T22:44:15.056Z,26.73
2018-11-11T22:46:44.728Z,25.97
2018-11-11T22:49:14.451Z,26.83
2018-11-11T22:51:44.602Z,27.50
2018-11-11T22:54:14.312Z,27.07
2018-11-11T22:56:44.036Z,29.40
2018-11-11T22:59:13.773Z,29.20
2018-11-11T23:01:44.126Z,28.20
2018-11-11T23:04:13.893Z,28.43
2018-11-11T23:06:44.229Z,28.03
2018-11-11T23:09:14.142Z,28.00
2018-11-11T23:11:44.485Z,29.10
2018-11-11T23:14:14.136Z,28.80
2018-11-11T23:16:43.826Z,29.23
2018-11-11T23:19:13.514Z,29.27
2018-11-11T23:21:43.799Z,29.20
2018-11-11T23:24:13.539Z,28.50
2018-11-11T23:26:43.320Z,28.77
2018-11-11T23:29:13.001Z,28.73
2018-11-11T23:31:42.703Z,28.53
2018-11-11T23:34:12.704Z,29.37
2018-11-11T23:36:43.444Z,30.83
2018-11-11T23:39:13.105Z,27.63
2018-11-11T23:41:42.763Z,29.70
2018-11-11T23:44:12.453Z,28.13
2018-11-11T23:46:42.139Z,28.60
2018-11-11T23:49:11.807Z,27.97
2018-11-11T23:51:42.589Z,30.80
2018-11-11T23:54:12.194Z,28.83
2018-11-11T23:56:41.956Z,29.07
2018-11-11T23:59:11.606Z,30.27
